Time;durP1;ratioP1;P1;durP2;ratioP2;P2;SDS_P1;SDS_P2;PMS_P1;PMS_P2;Temp;Humidity;BMP_temperature;BMP_pressure;BME280_temperature;BME280_humidity;BME280_pressure;Samples;Min_cycle;Max_cycle;Signal;HPM_P1;HPM_P2
2023/06/07 00:01:42;;;;;;;14.37;6.73;;;13.10;99.90;;;;;;5007881;28;20196;-76
2023/06/07 00:04:27;;;;;;;11.73;6.30;;;13.10;99.90;;;;;;5004645;28;20235;-79
2023/06/07 00:07:12;;;;;;;12.67;6.47;;;13.00;99.90;;;;;;5019275;28;20259;-74
2023/06/07 00:09:56;;;;;;;12.17;5.80;;;13.00;99.90;;;;;;5022228;28;20180;-77
2023/06/07 00:12:41;;;;;;;12.93;6.60;;;13.00;99.90;;;;;;5021956;28;20200;-77
2023/06/07 00:15:25;;;;;;;13.33;6.20;;;13.00;99.90;;;;;;5005639;28;20219;-78
2023/06/07 00:18:10;;;;;;;14.27;6.50;;;13.00;99.90;;;;;;5022930;28;20243;-77
2023/06/07 00:20:54;;;;;;;11.80;6.53;;;12.90;99.90;;;;;;5023836;28;20195;-76
2023/06/07 00:23:39;;;;;;;20.53;6.40;;;12.90;99.90;;;;;;5022476;28;20306;-75
2023/06/07 00:26:23;;;;;;;11.47;6.40;;;12.90;99.90;;;;;;5010820;28;20184;-76
2023/06/07 00:29:07;;;;;;;12.03;5.73;;;12.90;99.90;;;;;;5024456;28;20362;-76
2023/06/07 00:31:51;;;;;;;16.40;6.93;;;12.90;99.90;;;;;;5024938;28;20187;-76
2023/06/07 00:34:36;;;;;;;11.77;6.97;;;12.90;99.90;;;;;;5024812;28;20244;-76
2023/06/07 00:37:20;;;;;;;13.53;6.60;;;12.80;99.90;;;;;;5025116;28;20267;-76
2023/06/07 00:40:05;;;;;;;12.73;6.03;;;12.80;99.90;;;;;;5025632;28;20192;-79
2023/06/07 00:42:50;;;;;;;17.10;7.10;;;12.80;99.90;;;;;;5010483;28;20188;-76
2023/06/07 00:45:34;;;;;;;18.93;6.57;;;12.80;99.90;;;;;;5024093;28;20258;-76
2023/06/07 00:48:19;;;;;;;15.53;7.37;;;12.80;99.90;;;;;;5025482;28;20261;-76
2023/06/07 00:51:04;;;;;;;12.80;7.47;;;12.70;99.90;;;;;;5023671;28;20213;-76
2023/06/07 00:53:51;;;;;;;13.53;6.03;;;12.70;99.90;;;;;;5024918;28;20211;-78
2023/06/07 00:56:35;;;;;;;19.03;7.43;;;12.70;99.90;;;;;;5023403;28;20199;-77
2023/06/07 00:59:20;;;;;;;13.07;6.90;;;12.60;99.90;;;;;;5009355;28;20282;-77
2023/06/07 01:02:06;;;;;;;16.03;7.50;;;12.60;99.90;;;;;;5009671;28;20201;-75
2023/06/07 01:04:51;;;;;;;13.60;7.17;;;12.60;99.90;;;;;;5024870;28;20227;-75
2023/06/07 01:07:35;;;;;;;15.70;7.20;;;12.60;99.90;;;;;;5028007;28;20621;-78
2023/06/07 01:10:19;;;;;;;16.30;7.27;;;12.60;99.90;;;;;;5030776;28;20227;-77
2023/06/07 01:13:05;;;;;;;21.40;7.27;;;12.70;99.90;;;;;;5018648;28;20199;-78
2023/06/07 01:15:49;;;;;;;21.07;7.50;;;12.60;99.90;;;;;;5028716;28;20208;-75
2023/06/07 01:18:35;;;;;;;12.53;7.47;;;12.60;99.90;;;;;;5015948;28;20289;-75
2023/06/07 01:21:21;;;;;;;16.27;7.03;;;12.50;99.90;;;;;;5029003;28;20204;-74
2023/06/07 01:24:07;;;;;;;15.73;7.03;;;12.50;99.90;;;;;;5016173;28;20255;-75
2023/06/07 01:26:53;;;;;;;14.70;7.03;;;12.50;99.90;;;;;;5027178;28;20319;-76
2023/06/07 01:29:38;;;;;;;12.40;6.70;;;12.50;99.90;;;;;;5015223;28;20199;-74
2023/06/07 01:32:23;;;;;;;15.63;6.53;;;12.50;99.90;;;;;;5027523;28;20264;-76
2023/06/07 01:35:09;;;;;;;16.03;6.23;;;12.50;99.90;;;;;;5022367;28;20227;-77
2023/06/07 01:37:54;;;;;;;19.10;6.43;;;12.60;99.90;;;;;;5016679;28;20284;-76
2023/06/07 01:40:40;;;;;;;18.73;6.80;;;12.50;99.90;;;;;;5030494;28;20268;-74
2023/06/07 01:43:25;;;;;;;17.57;6.83;;;12.50;99.90;;;;;;5014945;28;20734;-75
2023/06/07 01:46:10;;;;;;;15.27;6.53;;;12.50;99.90;;;;;;5015462;28;20307;-75
2023/06/07 01:48:54;;;;;;;15.47;7.67;;;12.50;99.90;;;;;;5026863;28;20192;-75
2023/06/07 01:51:39;;;;;;;16.47;6.60;;;12.50;99.90;;;;;;5027479;28;20215;-74
2023/06/07 01:54:24;;;;;;;16.07;6.80;;;12.50;99.90;;;;;;5026346;28;20304;-75
2023/06/07 01:57:26;;;;;;;16.10;6.93;;;12.50;99.90;;;;;;5014078;28;20199;-77
2023/06/07 02:00:26;;;;;;;12.57;6.73;;;12.50;99.90;;;;;;5014418;28;20184;-76
2023/06/07 02:03:18;;;;;;;15.83;6.73;;;12.40;99.90;;;;;;5012507;28;20184;-75
2023/06/07 02:06:06;;;;;;;14.33;7.20;;;12.40;99.90;;;;;;5023698;28;20192;-77
2023/06/07 02:08:54;;;;;;;14.97;7.17;;;12.40;99.90;;;;;;5019992;28;20597;-74
2023/06/07 02:11:40;;;;;;;13.57;7.00;;;12.40;99.90;;;;;;5028336;28;20273;-76
2023/06/07 02:14:26;;;;;;;20.80;7.90;;;12.40;99.90;;;;;;5018969;28;20248;-75
2023/06/07 02:17:10;;;;;;;18.20;7.10;;;12.40;99.90;;;;;;5015087;28;20227;-76
2023/06/07 02:19:55;;;;;;;16.93;7.43;;;12.40;99.90;;;;;;5026002;28;20192;-76
2023/06/07 02:22:39;;;;;;;16.67;6.67;;;12.40;99.90;;;;;;5028554;28;20195;-75
2023/06/07 02:25:24;;;;;;;17.20;7.93;;;12.40;99.90;;;;;;5026699;28;20215;-76
2023/06/07 02:28:08;;;;;;;17.70;7.60;;;12.40;99.90;;;;;;5032372;28;20195;-77
2023/06/07 02:30:55;;;;;;;15.50;7.20;;;12.40;99.90;;;;;;5019845;28;20755;-74
2023/06/07 02:33:39;;;;;;;15.10;7.03;;;12.40;99.90;;;;;;5010969;28;20218;-74
2023/06/07 02:36:32;;;;;;;23.67;7.67;;;12.30;99.90;;;;;;5029952;28;20179;-76
2023/06/07 02:39:17;;;;;;;18.33;6.77;;;12.30;99.90;;;;;;5027853;28;20672;-76
2023/06/07 02:42:01;;;;;;;17.63;7.70;;;12.40;99.90;;;;;;5025021;28;20602;-77
2023/06/07 02:44:45;;;;;;;17.40;6.93;;;12.40;99.90;;;;;;5013824;28;20227;-76
2023/06/07 02:47:30;;;;;;;12.47;7.33;;;12.40;99.90;;;;;;5013499;28;20208;-76
2023/06/07 02:50:14;;;;;;;18.10;9.23;;;12.40;99.90;;;;;;5024835;28;20408;-78
2023/06/07 02:52:59;;;;;;;20.42;9.30;;;12.40;99.90;;;;;;5018098;28;20461;-75
2023/06/07 02:55:44;;;;;;;20.27;7.93;;;12.50;99.90;;;;;;5026024;28;20269;-74
2023/06/07 02:58:28;;;;;;;19.63;7.47;;;12.50;99.90;;;;;;5018695;28;20263;-75
2023/06/07 03:01:14;;;;;;;15.27;7.23;;;12.50;99.90;;;;;;5014120;28;20272;-76
2023/06/07 03:03:58;;;;;;;17.23;7.93;;;12.50;99.90;;;;;;5028494;28;20232;-76
2023/06/07 03:06:47;;;;;;;22.10;7.83;;;12.50;99.90;;;;;;5011732;28;20188;-77
2023/06/07 03:09:31;;;;;;;12.40;6.30;;;12.40;99.90;;;;;;5034048;28;20236;-75
2023/06/07 03:12:15;;;;;;;15.83;7.30;;;12.40;99.90;;;;;;5027372;28;20196;-74
2023/06/07 03:14:59;;;;;;;15.87;7.43;;;12.40;99.90;;;;;;5016833;28;20585;-76
2023/06/07 03:17:44;;;;;;;18.53;7.93;;;12.40;99.90;;;;;;5008604;28;20200;-76
2023/06/07 03:20:28;;;;;;;17.00;8.07;;;12.40;99.90;;;;;;5026167;28;20675;-75
2023/06/07 03:23:12;;;;;;;18.50;7.60;;;12.30;99.90;;;;;;5025202;28;20191;-75
2023/06/07 03:25:58;;;;;;;19.03;7.93;;;12.40;99.90;;;;;;5030309;28;20270;-75
2023/06/07 03:28:42;;;;;;;14.23;6.90;;;12.40;99.90;;;;;;5032969;28;20196;-77
2023/06/07 03:31:28;;;;;;;17.97;7.10;;;12.40;99.90;;;;;;5033858;28;20562;-76
2023/06/07 03:34:12;;;;;;;13.57;6.77;;;12.30;99.90;;;;;;5028451;28;20420;-76
2023/06/07 03:36:57;;;;;;;18.20;7.17;;;12.30;99.90;;;;;;5012033;28;20196;-77
2023/06/07 03:39:41;;;;;;;14.73;6.83;;;12.30;99.90;;;;;;5028684;28;20207;-76
2023/06/07 03:42:25;;;;;;;17.73;6.53;;;12.30;99.90;;;;;;5026981;28;20204;-78
2023/06/07 03:45:09;;;;;;;16.93;6.87;;;12.30;99.90;;;;;;5015586;28;20219;-75
2023/06/07 03:47:54;;;;;;;18.43;7.43;;;12.30;99.90;;;;;;5015102;28;20179;-77
2023/06/07 03:50:38;;;;;;;14.67;6.03;;;12.30;99.90;;;;;;5004084;28;20184;-75
2023/06/07 03:53:22;;;;;;;12.70;7.00;;;12.30;99.90;;;;;;5012161;28;20184;-76
2023/06/07 03:56:07;;;;;;;16.23;7.10;;;12.20;99.90;;;;;;5030303;28;20188;-76
2023/06/07 03:58:53;;;;;;;25.57;7.27;;;12.20;99.90;;;;;;5020757;28;20235;-76
2023/06/07 04:01:37;;;;;;;21.40;7.50;;;12.20;99.90;;;;;;5030371;28;20176;-75
2023/06/07 04:04:21;;;;;;;19.50;7.00;;;12.20;99.90;;;;;;5032135;28;20311;-76
2023/06/07 04:07:07;;;;;;;19.13;6.97;;;12.20;99.90;;;;;;5032333;28;20305;-77
2023/06/07 04:09:52;;;;;;;15.57;7.13;;;12.30;99.90;;;;;;5031268;28;20260;-75
2023/06/07 04:12:36;;;;;;;16.87;7.57;;;12.30;99.90;;;;;;5033088;28;20211;-76
2023/06/07 04:15:21;;;;;;;20.03;9.20;;;12.30;99.90;;;;;;5018164;28;20807;-77
2023/06/07 04:18:05;;;;;;;19.70;8.13;;;12.30;99.90;;;;;;5033088;28;20188;-75
2023/06/07 04:20:50;;;;;;;18.50;7.10;;;12.30;99.90;;;;;;5033114;28;20551;-76
2023/06/07 04:23:34;;;;;;;21.38;8.85;;;12.30;99.90;;;;;;5016878;28;20412;-75
2023/06/07 04:26:21;;;;;;;18.67;7.80;;;12.30;99.90;;;;;;5016854;28;20192;-75
2023/06/07 04:29:28;;;;;;;17.03;7.07;;;12.30;99.90;;;;;;5032665;28;20667;-73
2023/06/07 04:32:12;;;;;;;19.57;7.80;;;12.30;99.90;;;;;;5008030;28;20235;-76
2023/06/07 04:34:58;;;;;;;22.03;7.60;;;12.30;99.90;;;;;;5011939;28;20227;-77
2023/06/07 04:37:45;;;;;;;16.60;7.73;;;12.30;99.90;;;;;;5027114;28;20243;-75
2023/06/07 04:40:30;;;;;;;14.17;6.53;;;12.30;99.90;;;;;;5030164;28;20243;-74
2023/06/07 04:43:18;;;;;;;16.80;7.37;;;12.20;99.90;;;;;;5032114;28;20212;-75
2023/06/07 04:46:02;;;;;;;18.97;7.07;;;12.30;99.90;;;;;;5029110;28;20187;-78
2023/06/07 04:48:46;;;;;;;18.07;7.53;;;12.30;99.90;;;;;;5018324;28;20253;-76
2023/06/07 04:51:30;;;;;;;16.30;7.20;;;12.30;99.90;;;;;;5031250;28;20211;-77
2023/06/07 04:54:16;;;;;;;22.13;7.87;;;12.30;99.90;;;;;;5017423;28;20210;-77
2023/06/07 04:57:00;;;;;;;16.13;7.53;;;12.30;99.90;;;;;;5036844;28;20196;-76
2023/06/07 04:59:48;;;;;;;19.03;7.63;;;12.30;99.90;;;;;;5031819;28;20184;-76
2023/06/07 05:02:39;;;;;;;17.37;7.87;;;12.20;99.90;;;;;;5031729;28;20714;-77
2023/06/07 05:05:23;;;;;;;21.23;7.20;;;12.20;99.90;;;;;;5022385;28;20224;-78
2023/06/07 05:08:07;;;;;;;25.93;7.67;;;12.30;99.90;;;;;;5034095;28;20263;-75
2023/06/07 05:10:52;;;;;;;16.37;7.13;;;12.30;99.90;;;;;;5030333;28;20220;-76
2023/06/07 05:13:36;;;;;;;18.33;8.20;;;12.30;99.90;;;;;;5033102;28;20211;-75
2023/06/07 05:16:20;;;;;;;17.60;7.70;;;12.30;99.90;;;;;;5015477;28;20184;-75
2023/06/07 05:19:05;;;;;;;20.97;8.30;;;12.30;99.90;;;;;;5032107;28;20277;-75
2023/06/07 05:21:50;;;;;;;22.13;8.13;;;12.30;99.90;;;;;;5028393;28;20188;-76
2023/06/07 05:24:35;;;;;;;12.70;7.23;;;12.30;99.90;;;;;;5029515;28;20223;-76
2023/06/07 05:27:19;;;;;;;20.00;8.73;;;12.40;99.90;;;;;;5013980;28;20637;-75
2023/06/07 05:30:06;;;;;;;20.73;7.77;;;12.40;99.90;;;;;;5027614;28;20247;-77
2023/06/07 05:32:51;;;;;;;15.03;7.93;;;12.40;99.90;;;;;;5028801;28;20176;-75
2023/06/07 05:35:36;;;;;;;18.23;8.07;;;12.50;99.90;;;;;;5012441;28;20328;-76
2023/06/07 05:38:20;;;;;;;15.20;8.00;;;12.50;99.90;;;;;;5026637;28;20243;-74
2023/06/07 05:41:04;;;;;;;19.50;8.47;;;12.50;99.90;;;;;;5029337;28;20203;-76
2023/06/07 05:43:49;;;;;;;22.00;7.83;;;12.60;99.90;;;;;;5013732;28;20893;-75
2023/06/07 05:46:33;;;;;;;18.77;8.27;;;12.60;99.90;;;;;;5025240;28;20192;-75
2023/06/07 05:49:17;;;;;;;23.47;10.40;;;12.60;99.90;;;;;;5028074;28;20412;-77
2023/06/07 05:52:02;;;;;;;23.63;8.90;;;12.70;99.90;;;;;;5013322;28;20188;-76
2023/06/07 05:54:50;;;;;;;15.17;8.20;;;12.70;99.90;;;;;;5027017;28;20223;-74
2023/06/07 05:57:35;;;;;;;16.50;7.07;;;12.90;99.90;;;;;;5012273;28;20195;-76
2023/06/07 06:00:20;;;;;;;18.27;7.67;;;12.90;99.90;;;;;;5023720;28;20188;-77
2023/06/07 06:03:04;;;;;;;18.90;7.87;;;13.00;99.90;;;;;;5018706;28;20215;-76
2023/06/07 06:05:48;;;;;;;18.05;9.65;;;13.10;99.90;;;;;;5021917;28;20470;-76
2023/06/07 06:08:32;;;;;;;22.67;8.83;;;13.10;99.90;;;;;;5016457;28;20256;-76
2023/06/07 06:11:17;;;;;;;17.53;8.10;;;13.20;99.90;;;;;;5026100;28;20184;-75
2023/06/07 06:14:01;;;;;;;18.23;8.53;;;13.20;99.90;;;;;;5012818;28;20228;-75
2023/06/07 06:16:45;;;;;;;18.33;8.43;;;13.20;99.90;;;;;;5018712;28;20218;-76
2023/06/07 06:19:30;;;;;;;19.00;9.47;;;13.20;99.90;;;;;;5025471;28;20195;-76
2023/06/07 06:22:14;;;;;;;13.80;9.23;;;13.20;99.90;;;;;;5014215;28;20200;-75
2023/06/07 06:24:58;;;;;;;20.37;9.17;;;13.30;99.90;;;;;;5010800;28;20215;-76
2023/06/07 06:27:43;;;;;;;22.80;9.10;;;13.40;99.90;;;;;;5011392;28;20176;-76
2023/06/07 06:30:27;;;;;;;22.67;9.47;;;13.40;99.90;;;;;;5024736;28;20208;-76
2023/06/07 06:33:11;;;;;;;29.33;8.73;;;13.40;99.90;;;;;;5027009;28;20668;-76
2023/06/07 06:35:55;;;;;;;20.47;9.70;;;13.50;99.90;;;;;;5021125;28;20259;-76
2023/06/07 06:38:39;;;;;;;23.47;9.93;;;13.50;99.90;;;;;;5016771;28;20659;-75
2023/06/07 06:41:23;;;;;;;17.40;9.23;;;13.60;99.90;;;;;;5024040;28;20243;-75
2023/06/07 06:44:07;;;;;;;16.60;8.53;;;13.60;99.90;;;;;;5023452;28;20267;-76
2023/06/07 06:46:51;;;;;;;13.73;8.60;;;13.60;99.90;;;;;;5019802;28;20238;-76
2023/06/07 06:49:35;;;;;;;18.63;8.50;;;13.70;99.90;;;;;;5020921;28;20206;-76
2023/06/07 06:52:19;;;;;;;20.60;8.80;;;13.70;99.90;;;;;;5023566;28;20242;-76
2023/06/07 06:55:05;;;;;;;17.63;9.33;;;13.70;99.90;;;;;;5012814;28;20216;-76
2023/06/07 06:57:49;;;;;;;22.27;9.03;;;13.70;99.90;;;;;;5026407;28;20234;-75
2023/06/07 07:00:35;;;;;;;17.27;9.30;;;13.80;99.90;;;;;;5024785;28;20277;-74
2023/06/07 07:03:19;;;;;;;16.67;8.23;;;13.80;99.90;;;;;;5013824;28;20261;-75
2023/06/07 07:06:03;;;;;;;17.13;8.63;;;13.80;99.90;;;;;;5022103;28;20193;-76
2023/06/07 07:08:47;;;;;;;21.40;10.25;;;13.90;99.90;;;;;;5024867;28;20424;-75
2023/06/07 07:11:32;;;;;;;20.13;8.50;;;14.00;99.90;;;;;;5011242;28;20199;-75
2023/06/07 07:14:16;;;;;;;19.80;8.27;;;14.10;99.90;;;;;;5024562;28;20259;-76
2023/06/07 07:17:00;;;;;;;24.40;8.40;;;14.20;99.90;;;;;;5029812;28;20188;-75
2023/06/07 07:19:44;;;;;;;17.00;8.27;;;14.20;99.90;;;;;;5011388;28;20199;-74
2023/06/07 07:22:28;;;;;;;19.30;8.63;;;14.30;99.90;;;;;;5021475;28;20196;-75
2023/06/07 07:25:14;;;;;;;13.13;7.73;;;14.30;99.90;;;;;;5007911;28;20223;-75
2023/06/07 07:28:01;;;;;;;20.93;8.50;;;14.40;99.90;;;;;;5024939;28;20180;-75
2023/06/07 07:30:48;;;;;;;13.73;7.40;;;14.40;99.90;;;;;;5032440;28;20204;-78
2023/06/07 07:33:32;;;;;;;15.10;7.57;;;14.50;99.90;;;;;;5010313;28;20224;-76
2023/06/07 07:36:17;;;;;;;20.47;8.30;;;14.60;99.90;;;;;;5019879;28;20675;-75
2023/06/07 07:39:04;;;;;;;17.20;7.63;;;14.60;99.90;;;;;;5022176;28;20191;-76
2023/06/07 07:41:49;;;;;;;20.03;7.33;;;14.70;99.90;;;;;;5028206;28;20191;-76
2023/06/07 07:44:34;;;;;;;23.57;7.63;;;14.80;99.90;;;;;;5037662;28;20223;-76
2023/06/07 07:47:18;;;;;;;17.37;7.13;;;14.90;99.90;;;;;;5025888;28;20195;-76
2023/06/07 07:50:04;;;;;;;13.83;7.30;;;15.00;99.90;;;;;;5016238;28;20195;-75
2023/06/07 07:52:48;;;;;;;18.17;7.50;;;15.10;99.90;;;;;;5011431;28;20195;-75
2023/06/07 07:55:34;;;;;;;17.77;7.53;;;15.20;99.90;;;;;;5012020;28;20196;-76
2023/06/07 07:58:19;;;;;;;15.47;6.93;;;15.20;99.90;;;;;;5020524;28;20235;-76
2023/06/07 08:01:04;;;;;;;13.80;6.63;;;15.30;99.90;;;;;;5009816;28;20187;-75
2023/06/07 08:03:49;;;;;;;22.00;6.63;;;15.30;99.90;;;;;;5025126;28;20228;-76
2023/06/07 08:06:33;;;;;;;12.60;6.60;;;15.40;99.90;;;;;;5010676;28;20239;-76
2023/06/07 08:09:17;;;;;;;18.27;6.80;;;15.40;99.90;;;;;;5024610;28;20185;-75
2023/06/07 08:12:01;;;;;;;13.20;6.17;;;15.50;99.90;;;;;;5011376;28;20192;-76
2023/06/07 08:14:46;;;;;;;12.60;5.63;;;15.60;99.90;;;;;;5027984;28;20219;-76
2023/06/07 08:17:30;;;;;;;14.20;6.17;;;15.60;99.90;;;;;;5024862;28;20756;-76
2023/06/07 08:20:15;;;;;;;10.90;6.20;;;15.70;99.90;;;;;;5006953;28;20243;-76
2023/06/07 08:22:59;;;;;;;15.20;5.97;;;15.80;99.90;;;;;;5005397;28;20243;-76
2023/06/07 08:25:43;;;;;;;21.10;7.03;;;15.90;99.90;;;;;;5007151;28;20231;-77
2023/06/07 08:28:27;;;;;;;13.20;5.60;;;16.00;99.90;;;;;;5014511;28;20199;-78
2023/06/07 08:31:11;;;;;;;11.10;4.93;;;16.10;99.90;;;;;;5009896;28;20667;-76
2023/06/07 08:33:56;;;;;;;13.27;5.07;;;16.20;99.90;;;;;;5020421;28;20316;-75
2023/06/07 08:36:42;;;;;;;13.47;5.10;;;16.20;99.90;;;;;;5011370;28;20195;-75
2023/06/07 08:39:26;;;;;;;13.50;5.00;;;16.40;99.90;;;;;;5023782;28;20288;-76
2023/06/07 08:42:10;;;;;;;16.47;5.20;;;16.50;99.90;;;;;;5010921;28;20183;-75
2023/06/07 08:44:54;;;;;;;14.43;5.00;;;16.60;99.90;;;;;;5026294;28;20222;-76
2023/06/07 08:47:43;;;;;;;16.83;4.80;;;16.60;99.90;;;;;;5015673;28;20262;-76
2023/06/07 08:50:28;;;;;;;8.73;3.77;;;16.70;99.90;;;;;;5014288;28;20667;-78
2023/06/07 08:53:25;;;;;;;12.20;5.47;;;16.80;99.90;;;;;;5014947;28;20269;-76
2023/06/07 08:56:11;;;;;;;15.17;5.03;;;16.90;99.90;;;;;;5011676;28;20216;-76
2023/06/07 08:58:55;;;;;;;13.13;4.87;;;17.00;99.90;;;;;;5030730;28;20668;-75
2023/06/07 09:01:41;;;;;;;13.07;5.00;;;17.10;99.90;;;;;;5012154;28;20296;-77
2023/06/07 09:04:26;;;;;;;13.77;4.83;;;17.10;99.90;;;;;;5028649;28;20224;-75
2023/06/07 09:07:11;;;;;;;11.82;4.25;;;17.30;99.90;;;;;;5035244;28;20199;-76
2023/06/07 09:09:55;;;;;;;17.93;4.33;;;17.30;99.90;;;;;;5016646;28;20204;-76
2023/06/07 09:12:40;;;;;;;14.70;4.93;;;17.40;99.90;;;;;;5013521;28;20192;-76
2023/06/07 09:15:24;;;;;;;10.97;4.67;;;17.50;99.90;;;;;;5026080;28;20258;-78
2023/06/07 09:18:08;;;;;;;14.77;4.25;;;17.60;99.90;;;;;;5026176;28;20853;-76
2023/06/07 09:20:52;;;;;;;10.33;4.23;;;17.70;99.90;;;;;;5026848;28;20239;-77
2023/06/07 09:23:40;;;;;;;13.85;4.25;;;17.70;99.90;;;;;;5008146;28;20220;-76
2023/06/07 09:26:38;;;;;;;11.38;4.03;;;17.90;99.90;;;;;;5011537;28;20188;-77
2023/06/07 09:29:23;;;;;;;15.25;4.05;;;17.90;99.90;;;;;;5027141;28;20188;-75
2023/06/07 09:32:19;;;;;;;13.88;4.07;;;17.90;99.90;;;;;;5013070;28;20196;-76
2023/06/07 09:35:15;;;;;;;11.80;4.05;;;18.00;99.90;;;;;;5012622;28;20224;-75
2023/06/07 09:38:00;;;;;;;13.25;4.60;;;18.00;99.90;;;;;;5025857;28;20200;-76
2023/06/07 09:40:51;;;;;;;11.85;4.35;;;18.10;99.90;;;;;;5024525;28;20195;-76
2023/06/07 09:43:54;;;;;;;14.05;3.88;;;18.10;99.90;;;;;;5026445;28;20223;-78
2023/06/07 09:46:39;;;;;;;12.38;4.55;;;18.20;99.90;;;;;;5024038;28;20180;-77
2023/06/07 09:49:34;;;;;;;16.40;4.80;;;18.30;99.90;;;;;;5012562;28;20215;-76
2023/06/07 09:52:18;;;;;;;14.68;4.50;;;18.30;99.90;;;;;;5026458;28;20275;-76
2023/06/07 09:55:06;;;;;;;11.98;4.38;;;18.30;99.90;;;;;;5019564;28;20706;-76
2023/06/07 09:57:51;;;;;;;11.35;4.70;;;18.30;99.90;;;;;;5025455;28;20223;-77
2023/06/07 10:00:42;;;;;;;10.70;3.85;;;18.40;99.90;;;;;;5023596;28;20255;-76
2023/06/07 10:03:27;;;;;;;11.00;3.90;;;18.50;99.90;;;;;;5027185;28;20191;-77
2023/06/07 10:06:14;;;;;;;11.63;4.00;;;18.60;99.90;;;;;;5027484;28;20195;-75
2023/06/07 10:09:04;;;;;;;17.38;4.03;;;18.70;99.90;;;;;;5014115;28;20192;-75
2023/06/07 10:11:54;;;;;;;15.45;5.47;;;18.80;99.90;;;;;;5024470;28;20944;-73
2023/06/07 10:14:41;;;;;;;10.90;4.15;;;18.90;99.90;;;;;;5013609;28;20219;-76
2023/06/07 10:17:32;;;;;;;14.07;4.45;;;18.90;99.90;;;;;;5028333;28;20212;-75
2023/06/07 10:20:56;;;;;;;13.65;3.92;;;19.00;99.90;;;;;;5008148;28;20312;-76
2023/06/07 10:23:57;;;;;;;15.50;4.28;;;19.00;99.90;;;;;;4998206;28;20220;-77
2023/06/07 10:26:57;;;;;;;10.55;4.25;;;19.10;99.90;;;;;;5004760;28;20188;-76
2023/06/07 10:29:53;;;;;;;15.90;4.22;;;19.20;99.90;;;;;;5024619;28;20231;-74
2023/06/07 10:32:38;;;;;;;14.73;4.10;;;19.20;99.90;;;;;;5024576;28;20223;-73
2023/06/07 10:35:24;;;;;;;11.75;4.40;;;19.20;99.90;;;;;;5019141;28;20301;-76
2023/06/07 10:38:10;;;;;;;13.73;4.28;;;19.20;99.90;;;;;;5025634;28;20271;-76
2023/06/07 10:40:55;;;;;;;21.92;4.30;;;19.30;99.90;;;;;;5027327;28;20253;-76
2023/06/07 10:43:40;;;;;;;11.82;3.80;;;19.30;99.90;;;;;;5011902;28;20243;-75
2023/06/07 10:46:25;;;;;;;15.57;4.35;;;;;;;;;;5022472;28;20192;-77
2023/06/07 10:49:36;;;;;;;12.90;4.40;;;19.90;99.90;;;;;;5013197;28;20203;-75
2023/06/07 10:52:21;;;;;;;10.77;4.03;;;19.90;99.90;;;;;;5015807;28;20570;-76
2023/06/07 10:55:26;;;;;;;7.93;4.07;;;20.00;99.90;;;;;;5021992;28;20620;-74
2023/06/07 10:58:29;;;;;;;7.45;4.35;;;20.00;99.90;;;;;;5019567;28;20191;-77
2023/06/07 11:01:26;;;;;;;11.73;4.38;;;19.90;99.90;;;;;;5023070;28;20668;-76
2023/06/07 11:04:33;;;;;;;9.40;4.43;;;20.30;99.90;;;;;;5026094;28;20613;-77
2023/06/07 11:07:30;;;;;;;10.68;4.07;;;20.30;99.90;;;;;;5025521;28;20192;-76
2023/06/07 11:10:17;;;;;;;10.95;4.20;;;20.30;99.90;;;;;;5025013;28;20185;-76
2023/06/07 11:13:03;;;;;;;9.77;3.97;;;20.40;99.90;;;;;;5014592;28;20258;-76
2023/06/07 11:15:47;;;;;;;14.90;4.20;;;20.50;99.90;;;;;;5023354;28;20187;-75
2023/06/07 11:18:53;;;;;;;9.82;3.72;;;;;;;;;;5027273;28;20192;-76
2023/06/07 11:22:04;;;;;;;15.43;5.40;;;20.70;99.90;;;;;;5014520;28;20573;-74
2023/06/07 11:24:48;;;;;;;13.95;4.70;;;20.80;99.90;;;;;;5023275;28;20220;-75
2023/06/07 11:27:33;;;;;;;14.10;4.70;;;20.90;99.90;;;;;;5025409;28;20251;-75
2023/06/07 11:30:18;;;;;;;12.82;5.00;;;21.00;99.90;;;;;;5013865;28;20184;-75
2023/06/07 11:33:03;;;;;;;11.82;4.32;;;21.10;99.90;;;;;;5017829;28;20307;-76
2023/06/07 11:35:51;;;;;;;8.63;4.38;;;21.10;99.90;;;;;;5026579;28;20235;-77
2023/06/07 11:38:37;;;;;;;10.88;4.78;;;21.30;99.90;;;;;;5014644;28;20319;-75
2023/06/07 11:41:23;;;;;;;7.68;3.90;;;21.40;99.90;;;;;;5008978;28;20589;-76
2023/06/07 11:44:10;;;;;;;8.90;3.92;;;21.40;99.90;;;;;;5011032;28;20220;-75
2023/06/07 11:46:55;;;;;;;9.45;4.25;;;21.50;99.90;;;;;;5024360;28;20204;-75
2023/06/07 11:49:40;;;;;;;9.45;4.55;;;21.60;99.90;;;;;;5023393;28;20239;-75
2023/06/07 11:52:25;;;;;;;12.23;4.60;;;21.70;99.90;;;;;;5025104;28;20230;-75
2023/06/07 11:55:09;;;;;;;8.05;4.50;;;21.80;99.90;;;;;;5020741;28;20224;-75
2023/06/07 11:57:54;;;;;;;9.95;3.40;;;21.80;99.90;;;;;;5009482;28;20200;-74
2023/06/07 12:00:40;;;;;;;12.45;4.20;;;21.90;99.90;;;;;;5009492;28;20228;-77
2023/06/07 12:03:26;;;;;;;7.47;3.58;;;21.90;99.90;;;;;;5007974;28;20196;-76
2023/06/07 12:06:11;;;;;;;8.00;3.80;;;22.00;99.90;;;;;;5010337;28;20223;-74
2023/06/07 12:08:55;;;;;;;8.77;3.47;;;22.10;99.90;;;;;;5004367;28;20191;-77
2023/06/07 12:11:39;;;;;;;11.32;4.68;;;22.10;99.90;;;;;;5011316;28;20664;-76
2023/06/07 12:14:33;;;;;;;10.50;4.40;;;22.10;99.90;;;;;;5001797;28;20220;-76
2023/06/07 12:17:19;;;;;;;10.68;3.90;;;22.30;99.90;;;;;;5005032;28;20688;-76
2023/06/07 12:20:14;;;;;;;11.02;4.53;;;22.30;99.90;;;;;;5015580;28;20188;-76
2023/06/07 12:23:05;;;;;;;11.55;4.43;;;22.40;99.90;;;;;;5030960;28;20207;-76
2023/06/07 12:25:49;;;;;;;9.68;4.47;;;22.30;99.90;;;;;;5022675;28;20262;-75
2023/06/07 12:28:33;;;;;;;10.68;4.30;;;22.40;99.90;;;;;;5028563;28;20242;-77
2023/06/07 12:31:20;;;;;;;13.40;5.03;;;22.30;99.90;;;;;;5026744;28;20187;-77
2023/06/07 12:34:06;;;;;;;7.25;3.97;;;22.60;99.90;;;;;;5015629;28;20219;-74
2023/06/07 12:36:51;;;;;;;12.57;4.50;;;22.50;99.90;;;;;;5035390;28;20191;-76
2023/06/07 12:39:35;;;;;;;10.18;3.92;;;22.60;99.90;;;;;;5032229;28;20690;-77
2023/06/07 12:42:19;;;;;;;9.07;4.30;;;22.50;99.90;;;;;;5017346;28;20196;-76
2023/06/07 12:45:04;;;;;;;8.57;4.07;;;22.60;99.90;;;;;;5028480;28;20271;-75
2023/06/07 12:47:48;;;;;;;13.38;4.00;;;22.60;99.90;;;;;;5028227;28;20318;-78
2023/06/07 12:50:33;;;;;;;10.05;3.90;;;22.70;99.90;;;;;;5010026;28;20196;-75
2023/06/07 12:53:17;;;;;;;7.18;3.88;;;22.70;99.90;;;;;;5028556;28;20243;-76
2023/06/07 12:56:02;;;;;;;13.93;4.53;;;22.70;99.90;;;;;;5035323;28;20272;-77
2023/06/07 12:58:46;;;;;;;7.68;4.18;;;22.70;99.90;;;;;;5013691;28;20276;-76
2023/06/07 13:01:30;;;;;;;10.68;4.32;;;22.70;99.90;;;;;;5023616;28;20184;-74
2023/06/07 13:04:14;;;;;;;8.63;4.13;;;22.90;99.90;;;;;;5011376;28;20235;-76
2023/06/07 13:06:58;;;;;;;14.52;4.53;;;22.90;99.90;;;;;;5014635;28;20259;-75
2023/06/07 13:09:42;;;;;;;13.32;4.85;;;23.00;99.90;;;;;;5016119;28;20660;-76
2023/06/07 13:12:27;;;;;;;10.00;4.38;;;23.10;99.90;;;;;;5014352;28;20199;-76
2023/06/07 13:15:11;;;;;;;11.13;3.95;;;23.10;99.90;;;;;;5028102;28;20259;-75
2023/06/07 13:17:55;;;;;;;11.85;3.72;;;23.30;99.90;;;;;;5027212;28;20235;-74
2023/06/07 13:20:39;;;;;;;7.65;4.10;;;23.30;99.90;;;;;;5028609;28;20202;-76
2023/06/07 13:23:24;;;;;;;11.15;4.15;;;23.40;99.90;;;;;;5022495;28;20191;-74
2023/06/07 13:26:08;;;;;;;9.45;3.42;;;23.40;99.90;;;;;;5013991;28;20367;-75
2023/06/07 13:28:52;;;;;;;8.75;3.35;;;23.40;99.90;;;;;;5013539;28;20254;-75
2023/06/07 13:31:36;;;;;;;11.70;4.57;;;23.40;99.90;;;;;;5024136;28;20219;-77
2023/06/07 13:34:20;;;;;;;9.50;3.85;;;23.50;99.90;;;;;;5029091;28;20255;-75
2023/06/07 13:37:05;;;;;;;10.38;4.13;;;23.50;99.90;;;;;;5025770;28;20192;-75
2023/06/07 13:39:50;;;;;;;10.73;3.95;;;23.90;99.90;;;;;;5012567;28;20187;-77
2023/06/07 13:42:34;;;;;;;9.48;3.70;;;23.60;99.90;;;;;;5027885;28;20287;-76
2023/06/07 13:45:19;;;;;;;9.50;3.92;;;23.60;99.90;;;;;;5021350;28;20303;-75
2023/06/07 13:48:03;;;;;;;7.63;3.80;;;23.70;99.90;;;;;;5012282;28;20196;-74
2023/06/07 13:50:48;;;;;;;8.93;3.63;;;23.80;99.90;;;;;;5028706;28;20188;-76
2023/06/07 13:53:33;;;;;;;11.68;3.70;;;24.00;99.90;;;;;;5020993;28;20276;-74
2023/06/07 13:56:17;;;;;;;11.13;4.07;;;24.00;99.90;;;;;;5025877;28;20191;-76
2023/06/07 13:59:02;;;;;;;8.10;3.45;;;24.00;99.90;;;;;;5009338;28;20653;-76
2023/06/07 14:01:46;;;;;;;10.50;3.65;;;23.90;99.90;;;;;;5016480;28;20610;-76
2023/06/07 14:04:30;;;;;;;6.47;3.58;;;24.20;99.90;;;;;;5013106;28;20259;-75
2023/06/07 14:07:15;;;;;;;8.55;3.72;;;23.90;99.90;;;;;;5012537;28;20200;-75
2023/06/07 14:10:00;;;;;;;8.85;3.53;;;23.90;99.90;;;;;;5013373;28;20238;-75
2023/06/07 14:12:44;;;;;;;8.38;3.75;;;24.00;99.90;;;;;;5030504;28;20191;-76
2023/06/07 14:15:28;;;;;;;13.52;3.60;;;23.90;99.90;;;;;;5021844;28;20283;-75